createdAt,value
2022-10-03T00:01:12.388Z,10.50
2022-10-03T00:04:33.248Z,10.42
2022-10-03T00:07:24.277Z,10.33
2022-10-03T00:10:22.510Z,10.28
2022-10-03T00:13:29.984Z,10.24
2022-10-03T00:16:06.068Z,10.15
2022-10-03T00:18:57.407Z,10.09
2022-10-03T00:21:41.882Z,10.06
2022-10-03T00:24:30.564Z,10.02
2022-10-03T00:27:05.914Z,9.92
2022-10-03T00:29:38.579Z,9.78
2022-10-03T00:32:43.366Z,9.68
2022-10-03T00:35:12.986Z,9.61
2022-10-03T00:38:08.382Z,9.48
2022-10-03T00:41:02.367Z,9.37
2022-10-03T00:44:02.783Z,9.24
2022-10-03T00:46:51.056Z,9.15
2022-10-03T00:49:39.011Z,9.04
2022-10-03T00:52:11.444Z,8.94
2022-10-03T00:54:48.398Z,8.88
2022-10-03T00:57:33.895Z,8.82
2022-10-03T01:00:19.280Z,8.77
2022-10-03T01:02:52.167Z,8.73
2022-10-03T01:05:30.189Z,8.66
2022-10-03T01:08:38.130Z,8.62
2022-10-03T01:11:10.553Z,8.58
2022-10-03T01:13:54.269Z,8.53
2022-10-03T01:16:37.856Z,8.48
2022-10-03T01:19:23.098Z,8.42
2022-10-03T01:22:27.014Z,8.37
2022-10-03T01:25:17.599Z,8.34
2022-10-03T01:28:15.394Z,8.31
2022-10-03T01:30:47.826Z,8.30
2022-10-03T01:33:46.308Z,8.27
2022-10-03T01:36:22.250Z,8.24
2022-10-03T01:38:55.118Z,8.24
2022-10-03T01:41:52.265Z,8.23
2022-10-03T01:44:37.987Z,8.21
2022-10-03T01:47:22.981Z,8.17
2022-10-03T01:50:01.602Z,8.12
2022-10-03T01:52:37.116Z,8.10
2022-10-03T01:55:20.743Z,8.06
2022-10-03T01:58:05.621Z,8.01
2022-10-03T02:01:07.914Z,7.98
2022-10-03T02:03:49.661Z,7.89
2022-10-03T02:06:38.104Z,7.81
2022-10-03T02:09:46.236Z,7.71
2022-10-03T02:12:16.867Z,7.70
2022-10-03T02:14:55.602Z,7.65
2022-10-03T02:18:12.918Z,7.60
2022-10-03T02:21:01.951Z,7.54
2022-10-03T02:23:34.278Z,7.51
2022-10-03T02:26:45.096Z,7.49
2022-10-03T02:29:45.650Z,7.60
2022-10-03T02:32:15.330Z,7.69
2022-10-03T02:34:58.496Z,7.72
2022-10-03T02:37:27.952Z,7.61
2022-10-03T02:40:00.230Z,7.60
2022-10-03T02:42:47.629Z,7.71
2022-10-03T02:45:47.464Z,7.82
2022-10-03T02:48:53.571Z,7.94
2022-10-03T02:51:38.433Z,8.04
2022-10-03T02:54:36.199Z,8.06
2022-10-03T02:57:27.032Z,8.14
2022-10-03T03:00:18.339Z,8.16
2022-10-03T03:02:47.909Z,8.24
2022-10-03T03:05:36.406Z,8.28
2022-10-03T03:08:53.779Z,8.30
2022-10-03T03:11:35.362Z,8.30
2022-10-03T03:14:26.739Z,8.34
2022-10-03T03:17:11.384Z,8.38
2022-10-03T03:19:44.261Z,8.42
2022-10-03T03:22:27.917Z,8.43
2022-10-03T03:24:54.417Z,8.34
2022-10-03T03:27:50.854Z,8.29
2022-10-03T03:30:36.391Z,8.17
2022-10-03T03:33:21.095Z,8.13
2022-10-03T03:35:57.529Z,8.16
2022-10-03T03:39:06.314Z,8.17
2022-10-03T03:41:43.460Z,8.11
2022-10-03T03:44:25.464Z,7.97
2022-10-03T03:47:10.729Z,7.88
2022-10-03T03:49:49.910Z,7.80
2022-10-03T03:52:37.788Z,7.66
2022-10-03T03:55:26.695Z,7.57
2022-10-03T03:58:09.859Z,7.55
2022-10-03T04:00:55.332Z,7.55
2022-10-03T04:03:37.864Z,7.50
2022-10-03T04:06:26.463Z,7.42
2022-10-03T04:09:00.760Z,7.38
2022-10-03T04:11:42.103Z,7.26
2022-10-03T04:14:47.089Z,7.13
2022-10-03T04:17:40.769Z,7.07
2022-10-03T04:20:48.839Z,7.01
2022-10-03T04:23:43.107Z,6.96
2022-10-03T04:26:12.887Z,6.94
2022-10-03T04:28:58.890Z,6.88
2022-10-03T04:31:44.307Z,6.76
2022-10-03T04:34:29.557Z,6.75
2022-10-03T04:37:15.407Z,6.68
2022-10-03T04:39:46.253Z,6.65
2022-10-03T04:42:40.958Z,6.75
2022-10-03T04:45:37.019Z,6.79
2022-10-03T04:48:28.969Z,6.74
2022-10-03T04:51:07.538Z,6.66
2022-10-03T04:53:49.660Z,6.61
2022-10-03T04:56:32.937Z,6.57
2022-10-03T04:59:18.779Z,6.59
2022-10-03T05:02:09.822Z,6.65
2022-10-03T05:05:03.324Z,6.66
2022-10-03T05:07:42.087Z,6.66
2022-10-03T05:10:47.117Z,6.66
2022-10-03T05:13:39.766Z,6.66
2022-10-03T05:16:21.935Z,6.68
2022-10-03T05:19:03.582Z,6.63
2022-10-03T05:21:56.452Z,6.57
2022-10-03T05:24:52.081Z,6.53
2022-10-03T05:27:33.705Z,6.59
2022-10-03T05:30:14.891Z,6.57
2022-10-03T05:32:56.422Z,6.56
2022-10-03T05:36:06.310Z,6.53
2022-10-03T05:38:59.938Z,6.45
2022-10-03T05:41:32.710Z,6.36
2022-10-03T05:44:10.027Z,6.33
2022-10-03T05:47:04.374Z,6.31
2022-10-03T05:49:54.065Z,6.34
2022-10-03T05:52:23.568Z,6.39
2022-10-03T05:54:59.279Z,6.52
2022-10-03T05:57:50.232Z,6.59
2022-10-03T06:00:21.679Z,6.68
2022-10-03T06:03:03.719Z,6.80
2022-10-03T06:05:36.907Z,6.86
2022-10-03T06:08:22.181Z,6.94
2022-10-03T06:11:02.495Z,7.02
2022-10-03T06:13:53.965Z,7.08
2022-10-03T06:16:37.509Z,7.22
2022-10-03T06:19:25.709Z,7.31
2022-10-03T06:22:10.705Z,7.40
2022-10-03T06:24:37.195Z,7.54
2022-10-03T06:27:51.316Z,7.68
2022-10-03T06:30:22.388Z,7.82
2022-10-03T06:33:23.093Z,8.12
2022-10-03T06:36:17.023Z,8.21
2022-10-03T06:39:31.057Z,8.57
2022-10-03T06:42:12.291Z,8.62
2022-10-03T06:44:55.125Z,8.87
2022-10-03T06:47:47.683Z,9.07
2022-10-03T06:50:27.412Z,9.05
2022-10-03T06:53:32.832Z,9.02
2022-10-03T06:56:31.647Z,9.04
2022-10-03T06:59:08.438Z,9.13
2022-10-03T07:01:35.141Z,9.22
2022-10-03T07:04:24.238Z,9.35
2022-10-03T07:06:58.459Z,9.18
2022-10-03T07:10:01.069Z,9.30
2022-10-03T07:12:47.543Z,9.44
2022-10-03T07:16:28.423Z,9.58
2022-10-03T07:19:20.194Z,9.55
2022-10-03T07:22:25.876Z,9.58
2022-10-03T07:25:43.799Z,9.49
2022-10-03T07:28:48.596Z,9.44
2022-10-03T07:31:51.343Z,9.26
2022-10-03T07:34:36.194Z,9.26
2022-10-03T07:37:21.266Z,9.20
2022-10-03T07:40:20.216Z,9.16
2022-10-03T07:43:19.494Z,9.36
2022-10-03T07:46:08.036Z,9.35
2022-10-03T07:49:04.452Z,9.39
2022-10-03T07:51:48.817Z,9.56
2022-10-03T07:54:42.967Z,9.76
2022-10-03T07:57:27.728Z,9.90
2022-10-03T08:00:03.292Z,9.82
2022-10-03T08:03:00.908Z,9.95
2022-10-03T08:05:48.232Z,9.80
2022-10-03T08:08:44.655Z,9.84
2022-10-03T08:11:49.407Z,9.89
2022-10-03T08:14:43.290Z,9.91
2022-10-03T08:17:34.179Z,9.87
2022-10-03T08:20:38.376Z,10.01
2022-10-03T08:23:40.800Z,10.13
2022-10-03T08:26:11.137Z,10.22
2022-10-03T08:28:50.341Z,10.38
2022-10-03T08:31:55.878Z,10.56
2022-10-03T08:34:44.064Z,10.64
2022-10-03T08:37:44.914Z,10.72
2022-10-03T08:40:36.317Z,10.79
2022-10-03T08:43:02.836Z,10.85
2022-10-03T08:45:44.718Z,10.97
2022-10-03T08:48:42.704Z,11.16
2022-10-03T08:51:26.194Z,11.27
2022-10-03T08:54:24.469Z,11.88
2022-10-03T08:57:15.713Z,12.42
2022-10-03T09:00:03.498Z,12.88
2022-10-03T09:03:02.092Z,13.58
2022-10-03T09:06:09.080Z,13.52
2022-10-03T09:08:49.812Z,13.21
2022-10-03T09:11:29.657Z,13.62
2022-10-03T09:14:05.237Z,13.98
2022-10-03T09:16:47.206Z,13.90
2022-10-03T09:19:30.676Z,14.69
2022-10-03T09:22:20.427Z,14.68
2022-10-03T09:25:07.303Z,14.41
2022-10-03T09:27:33.798Z,14.57
2022-10-03T09:30:23.062Z,15.61
2022-10-03T09:33:14.157Z,15.13
2022-10-03T09:36:01.294Z,14.45
2022-10-03T09:39:04.783Z,14.45
2022-10-03T09:41:34.184Z,14.60
2022-10-03T09:44:31.056Z,14.72
2022-10-03T09:47:30.405Z,14.38
2022-10-03T09:50:36.580Z,13.64
2022-10-03T09:53:40.063Z,13.61
2022-10-03T09:56:44.183Z,13.20
2022-10-03T09:59:58.446Z,12.86
2022-10-03T10:02:37.085Z,13.23
2022-10-03T10:05:15.951Z,13.48
2022-10-03T10:08:07.172Z,14.57
2022-10-03T10:11:11.376Z,15.02
2022-10-03T10:14:16.711Z,15.43
2022-10-03T10:16:47.748Z,15.37
2022-10-03T10:19:27.094Z,15.60
2022-10-03T10:22:10.600Z,15.07
2022-10-03T10:24:55.439Z,15.14
2022-10-03T10:27:52.442Z,14.56
2022-10-03T10:30:54.288Z,14.38
2022-10-03T10:33:58.159Z,15.93
2022-10-03T10:36:55.876Z,17.31
2022-10-03T10:39:31.485Z,17.40
2022-10-03T10:42:16.222Z,17.29
2022-10-03T10:45:20.317Z,16.63
2022-10-03T10:48:17.083Z,16.28
2022-10-03T10:50:53.556Z,16.88
2022-10-03T10:53:57.369Z,17.88
2022-10-03T10:56:46.941Z,18.92
2022-10-03T10:59:51.031Z,20.43
2022-10-03T11:02:43.311Z,19.77
2022-10-03T11:05:46.982Z,19.30
2022-10-03T11:08:53.731Z,19.42
2022-10-03T11:11:58.632Z,18.78
2022-10-03T11:14:28.266Z,18.40
2022-10-03T11:17:07.065Z,17.91
2022-10-03T11:19:42.498Z,17.92
2022-10-03T11:22:30.361Z,18.67
2022-10-03T11:25:35.936Z,19.50
2022-10-03T11:28:27.685Z,18.14
2022-10-03T11:31:19.448Z,18.58
2022-10-03T11:34:04.658Z,20.57
2022-10-03T11:37:07.121Z,21.05
2022-10-03T11:39:52.067Z,21.19
2022-10-03T11:42:37.270Z,20.66
2022-10-03T11:45:06.813Z,20.21
2022-10-03T11:47:42.930Z,19.53
2022-10-03T11:50:53.832Z,18.48
2022-10-03T11:53:41.874Z,17.64
2022-10-03T11:56:44.344Z,17.65
2022-10-03T11:59:42.235Z,19.32
2022-10-03T12:02:24.358Z,20.69
2022-10-03T12:05:12.354Z,20.50
2022-10-03T12:08:34.848Z,20.16
2022-10-03T12:11:09.354Z,19.51
2022-10-03T12:13:40.018Z,19.05
2022-10-03T12:16:19.242Z,18.67
2022-10-03T12:18:45.766Z,18.97
2022-10-03T12:21:21.824Z,19.07
2022-10-03T12:24:13.472Z,18.90
2022-10-03T12:26:44.092Z,18.79
2022-10-03T12:29:13.357Z,18.71
2022-10-03T12:32:01.261Z,18.97
2022-10-03T12:34:52.828Z,19.47
2022-10-03T12:37:46.627Z,20.38
2022-10-03T12:40:25.475Z,22.00
2022-10-03T12:43:17.058Z,23.12
2022-10-03T12:45:54.761Z,22.36
2022-10-03T12:48:30.131Z,23.02
2022-10-03T12:51:08.805Z,23.94
2022-10-03T12:53:48.896Z,24.50
2022-10-03T12:56:29.602Z,24.77
2022-10-03T12:59:02.303Z,24.60
2022-10-03T13:02:07.814Z,23.04
2022-10-03T13:04:54.415Z,20.36
2022-10-03T13:07:32.546Z,19.80
2022-10-03T13:10:33.257Z,19.94
2022-10-03T13:13:13.235Z,19.33
2022-10-03T13:16:06.043Z,20.42
2022-10-03T13:18:51.685Z,21.92
2022-10-03T13:21:45.371Z,23.15
2022-10-03T13:24:27.198Z,23.53
2022-10-03T13:26:56.558Z,23.64
2022-10-03T13:29:30.073Z,24.15
2022-10-03T13:31:56.913Z,24.21
2022-10-03T13:34:30.761Z,24.23
2022-10-03T13:37:14.445Z,23.41
2022-10-03T13:39:51.992Z,23.81
2022-10-03T13:42:34.224Z,24.77
2022-10-03T13:45:06.737Z,24.96
2022-10-03T13:47:53.926Z,25.04
2022-10-03T13:50:48.419Z,24.64
2022-10-03T13:53:45.114Z,24.17
2022-10-03T13:56:25.065Z,24.54
2022-10-03T13:59:19.322Z,24.57
2022-10-03T14:02:00.329Z,23.20
2022-10-03T14:04:52.171Z,23.42
2022-10-03T14:07:55.272Z,23.61
2022-10-03T14:10:44.264Z,22.43
2022-10-03T14:13:18.857Z,21.76
2022-10-03T14:16:11.778Z,22.74
2022-10-03T14:18:44.883Z,22.89
2022-10-03T14:21:31.792Z,24.06
2022-10-03T14:24:18.552Z,23.78
2022-10-03T14:27:28.672Z,23.75
2022-10-03T14:30:17.062Z,23.45
2022-10-03T14:32:53.357Z,23.68
2022-10-03T14:35:38.915Z,24.65
2022-10-03T14:38:45.652Z,24.03
2022-10-03T14:41:25.921Z,23.13
2022-10-03T14:43:57.093Z,21.14
2022-10-03T14:46:31.666Z,19.85
2022-10-03T14:49:05.470Z,20.69
2022-10-03T14:51:38.579Z,20.03
2022-10-03T14:54:21.657Z,19.19
2022-10-03T14:56:51.506Z,18.90
2022-10-03T14:59:26.993Z,18.76
2022-10-03T15:01:55.891Z,18.65
2022-10-03T15:04:37.788Z,18.46
2022-10-03T15:07:06.262Z,17.20
2022-10-03T15:09:40.002Z,17.14
2022-10-03T15:12:22.476Z,16.19
2022-10-03T15:14:59.222Z,16.11
2022-10-03T15:17:33.027Z,15.61
2022-10-03T15:20:02.245Z,15.48
2022-10-03T15:22:36.926Z,15.17
2022-10-03T15:25:09.827Z,14.74
2022-10-03T15:27:40.689Z,14.53
2022-10-03T15:30:08.244Z,14.61
2022-10-03T15:32:43.432Z,14.34
2022-10-03T15:35:18.444Z,14.28
2022-10-03T15:37:47.805Z,13.95
2022-10-03T15:40:33.707Z,13.87
2022-10-03T15:43:22.729Z,14.03
2022-10-03T15:45:53.241Z,13.74
2022-10-03T15:48:22.596Z,13.78
2022-10-03T15:50:58.469Z,13.52
2022-10-03T15:53:37.151Z,13.32
2022-10-03T15:56:07.137Z,13.08
2022-10-03T15:58:37.481Z,13.09
2022-10-03T16:01:37.253Z,12.92
2022-10-03T16:04:08.279Z,12.86
2022-10-03T16:07:09.348Z,12.75
2022-10-03T16:09:53.107Z,12.88
2022-10-03T16:12:19.601Z,12.98
2022-10-03T16:14:51.413Z,12.87
2022-10-03T16:17:28.008Z,12.48
2022-10-03T16:20:09.885Z,12.18
2022-10-03T16:22:43.554Z,12.28
2022-10-03T16:25:20.625Z,12.15
2022-10-03T16:27:56.208Z,11.83
2022-10-03T16:30:28.153Z,11.72
2022-10-03T16:33:12.780Z,11.70
2022-10-03T16:35:57.262Z,11.70
2022-10-03T16:38:31.313Z,11.71
2022-10-03T16:41:05.817Z,11.70
2022-10-03T16:43:34.673Z,11.57
2022-10-03T16:46:09.483Z,11.45
2022-10-03T16:48:55.109Z,11.34
2022-10-03T16:52:03.348Z,11.20
2022-10-03T16:54:31.739Z,11.12
2022-10-03T16:57:04.973Z,10.83
2022-10-03T16:59:34.139Z,10.57
2022-10-03T17:02:14.178Z,10.40
2022-10-03T17:04:45.826Z,10.34
2022-10-03T17:07:16.102Z,10.29
2022-10-03T17:10:00.495Z,10.20
2022-10-03T17:12:29.979Z,10.12
2022-10-03T17:15:02.481Z,10.09
2022-10-03T17:17:39.440Z,9.97
2022-10-03T17:20:22.176Z,9.98
2022-10-03T17:23:02.164Z,9.83
2022-10-03T17:25:58.730Z,9.73
2022-10-03T17:28:30.781Z,9.79
2022-10-03T17:31:04.057Z,9.62
2022-10-03T17:33:56.735Z,9.43
2022-10-03T17:36:47.962Z,9.26
2022-10-03T17:39:39.892Z,9.21
2022-10-03T17:42:34.001Z,9.08
2022-10-03T17:45:31.866Z,9.07
2022-10-03T17:48:15.767Z,8.95
2022-10-03T17:50:54.514Z,8.72
2022-10-03T17:53:29.183Z,8.64
2022-10-03T17:56:04.656Z,8.52
2022-10-03T17:58:33.074Z,8.34
2022-10-03T18:01:10.104Z,8.23
2022-10-03T18:03:39.753Z,8.16
2022-10-03T18:06:40.029Z,8.28
2022-10-03T18:09:18.218Z,8.34
2022-10-03T18:11:49.756Z,8.23
2022-10-03T18:14:27.428Z,8.13
2022-10-03T18:17:19.435Z,7.95
2022-10-03T18:19:52.079Z,7.85
2022-10-03T18:22:24.595Z,7.71
2022-10-03T18:24:51.949Z,7.60
2022-10-03T18:27:19.450Z,7.61
2022-10-03T18:30:03.315Z,7.61
2022-10-03T18:32:32.621Z,7.52
2022-10-03T18:35:17.930Z,7.49
2022-10-03T18:37:46.992Z,7.35
2022-10-03T18:40:23.003Z,7.39
2022-10-03T18:42:50.249Z,7.42
2022-10-03T18:45:27.203Z,7.42
2022-10-03T18:48:19.420Z,7.30
2022-10-03T18:51:10.035Z,7.17
2022-10-03T18:53:41.291Z,7.16
2022-10-03T18:56:18.644Z,7.16
2022-10-03T18:58:57.511Z,7.17
2022-10-03T19:01:52.594Z,7.13
2022-10-03T19:04:44.640Z,7.06
2022-10-03T19:07:22.790Z,6.92
2022-10-03T19:10:11.853Z,6.67
2022-10-03T19:12:43.651Z,6.63
2022-10-03T19:15:38.733Z,6.73
2022-10-03T19:18:26.188Z,6.74
2022-10-03T19:20:57.026Z,6.80
2022-10-03T19:23:31.157Z,6.77
2022-10-03T19:26:02.564Z,6.69
2022-10-03T19:28:34.217Z,6.63
2022-10-03T19:31:32.974Z,6.54
2022-10-03T19:34:04.381Z,6.46
2022-10-03T19:36:35.055Z,6.54
2022-10-03T19:39:05.280Z,6.52
2022-10-03T19:41:56.999Z,6.63
2022-10-03T19:44:28.528Z,6.63
2022-10-03T19:47:17.896Z,6.66
2022-10-03T19:49:56.267Z,6.67
2022-10-03T19:52:30.309Z,6.57
2022-10-03T19:55:02.899Z,6.52
2022-10-03T19:57:40.113Z,6.41
2022-10-03T20:00:15.761Z,6.33
2022-10-03T20:02:44.327Z,6.30
2022-10-03T20:05:37.537Z,6.37
2022-10-03T20:08:13.230Z,6.33
2022-10-03T20:10:39.821Z,6.10
2022-10-03T20:13:09.442Z,6.10
2022-10-03T20:15:44.610Z,6.04
2022-10-03T20:18:25.123Z,5.94
2022-10-03T20:20:54.719Z,5.86
2022-10-03T20:23:27.266Z,5.83
2022-10-03T20:26:04.503Z,5.82
2022-10-03T20:28:34.139Z,5.82
2022-10-03T20:31:00.813Z,5.84
2022-10-03T20:33:33.449Z,5.79
2022-10-03T20:36:06.268Z,5.73
2022-10-03T20:38:56.999Z,5.77
2022-10-03T20:41:29.771Z,5.83
2022-10-03T20:44:13.320Z,5.89
2022-10-03T20:46:40.583Z,5.78
2022-10-03T20:49:27.991Z,5.62
2022-10-03T20:51:54.456Z,5.58
2022-10-03T20:54:23.740Z,5.72
2022-10-03T20:57:02.516Z,5.60
2022-10-03T20:59:49.449Z,5.44
2022-10-03T21:02:24.871Z,5.44
2022-10-03T21:05:20.969Z,5.49
2022-10-03T21:08:04.366Z,5.58
2022-10-03T21:10:33.804Z,5.55
2022-10-03T21:13:05.031Z,5.53
2022-10-03T21:15:37.884Z,5.59
2022-10-03T21:18:05.920Z,5.59
2022-10-03T21:20:39.951Z,5.61
2022-10-03T21:23:43.470Z,5.66
2022-10-03T21:26:10.995Z,5.72
2022-10-03T21:28:40.910Z,5.64
2022-10-03T21:31:07.415Z,5.62
2022-10-03T21:34:07.263Z,5.70
2022-10-03T21:36:57.464Z,5.65
2022-10-03T21:39:37.399Z,5.54
2022-10-03T21:42:41.169Z,5.46
2022-10-03T21:45:31.778Z,5.59
2022-10-03T21:48:08.132Z,5.65
2022-10-03T21:50:46.405Z,5.69
2022-10-03T21:53:17.691Z,5.74
2022-10-03T21:56:12.184Z,5.72
2022-10-03T21:58:48.023Z,5.72
2022-10-03T22:01:43.989Z,5.80
2022-10-03T22:04:36.133Z,5.72
2022-10-03T22:07:06.979Z,5.70
2022-10-03T22:09:33.993Z,5.73
2022-10-03T22:12:05.975Z,5.73
2022-10-03T22:14:51.831Z,5.66
2022-10-03T22:18:02.220Z,5.61
2022-10-03T22:20:30.912Z,5.61
2022-10-03T22:23:03.897Z,5.51
2022-10-03T22:25:57.908Z,5.46
2022-10-03T22:28:36.852Z,5.61
2022-10-03T22:31:12.431Z,5.59
2022-10-03T22:34:06.140Z,5.50
2022-10-03T22:36:37.852Z,5.42
2022-10-03T22:39:14.729Z,5.34
2022-10-03T22:41:45.669Z,5.36
2022-10-03T22:44:16.437Z,5.30
2022-10-03T22:46:46.650Z,5.22
2022-10-03T22:49:16.167Z,4.98
2022-10-03T22:51:45.188Z,4.89
2022-10-03T22:54:16.560Z,4.88
2022-10-03T22:57:10.984Z,4.84
2022-10-03T22:59:49.837Z,4.80
2022-10-03T23:02:18.950Z,4.78
2022-10-03T23:04:55.740Z,4.79
2022-10-03T23:07:32.347Z,4.77
2022-10-03T23:10:19.834Z,4.72
2022-10-03T23:12:51.702Z,4.57
2022-10-03T23:15:22.153Z,4.47
2022-10-03T23:18:03.350Z,4.48
2022-10-03T23:21:03.995Z,4.46
2022-10-03T23:23:54.568Z,4.46
2022-10-03T23:26:39.396Z,4.37
2022-10-03T23:29:14.633Z,4.37
2022-10-03T23:31:56.170Z,4.30
2022-10-03T23:34:35.176Z,4.27
2022-10-03T23:37:13.867Z,4.28
2022-10-03T23:39:40.469Z,4.25
2022-10-03T23:42:25.351Z,4.26
2022-10-03T23:45:06.565Z,4.31
2022-10-03T23:47:40.290Z,4.28
2022-10-03T23:50:09.024Z,4.12
2022-10-03T23:52:57.358Z,4.03
2022-10-03T23:55:33.336Z,3.97
2022-10-03T23:58:00.356Z,3.98
